createdAt,value
2022-07-26T00:01:22.141Z,28.28
2022-07-26T00:03:52.135Z,28.29
2022-07-26T00:06:20.059Z,28.27
2022-07-26T00:08:48.035Z,28.27
2022-07-26T00:11:15.978Z,28.27
2022-07-26T00:13:43.875Z,28.25
2022-07-26T00:16:13.381Z,28.27
2022-07-26T00:18:41.468Z,28.22
2022-07-26T00:21:09.531Z,28.21
2022-07-26T00:23:39.623Z,28.18
2022-07-26T00:26:07.483Z,28.17
2022-07-26T00:28:35.393Z,28.14
2022-07-26T00:31:04.541Z,28.12
2022-07-26T00:33:34.087Z,28.12
2022-07-26T00:36:02.153Z,28.07
2022-07-26T00:38:30.040Z,28.02
2022-07-26T00:40:58.403Z,28.00
2022-07-26T00:43:26.195Z,27.97
2022-07-26T00:45:54.076Z,27.94
2022-07-26T00:48:21.928Z,27.92
2022-07-26T00:50:51.459Z,27.92
2022-07-26T00:53:20.625Z,27.89
2022-07-26T00:55:49.480Z,27.85
2022-07-26T00:58:17.917Z,27.83
2022-07-26T01:00:46.420Z,27.80
2022-07-26T01:03:14.487Z,27.78
2022-07-26T01:05:43.647Z,27.76
2022-07-26T01:08:12.898Z,27.75
2022-07-26T01:10:41.004Z,27.69
2022-07-26T01:13:09.476Z,27.67
2022-07-26T01:15:37.464Z,27.66
2022-07-26T01:18:05.447Z,27.62
2022-07-26T01:20:33.305Z,27.59
2022-07-26T01:23:02.928Z,27.59
2022-07-26T01:25:32.176Z,27.55
2022-07-26T01:28:00.277Z,27.51
2022-07-26T01:30:28.399Z,27.50
2022-07-26T01:32:56.271Z,27.48
2022-07-26T01:35:24.183Z,27.46
2022-07-26T01:37:57.220Z,27.43
2022-07-26T01:40:26.584Z,27.44
2022-07-26T01:42:54.485Z,27.40
2022-07-26T01:45:22.440Z,27.40
2022-07-26T01:47:51.026Z,27.38
2022-07-26T01:50:19.294Z,27.37
2022-07-26T01:52:47.166Z,27.36
2022-07-26T01:55:15.051Z,27.35
2022-07-26T01:57:45.962Z,27.38
2022-07-26T02:00:15.029Z,27.35
2022-07-26T02:02:42.930Z,27.33
2022-07-26T02:05:11.244Z,27.33
2022-07-26T02:07:42.827Z,27.35
2022-07-26T02:10:14.514Z,27.32
2022-07-26T02:12:44.314Z,27.30
2022-07-26T02:15:13.522Z,27.30
2022-07-26T02:17:41.582Z,27.27
2022-07-26T02:20:10.757Z,27.26
2022-07-26T02:22:38.594Z,27.21
2022-07-26T02:25:07.356Z,27.20
2022-07-26T02:27:35.228Z,27.16
2022-07-26T02:30:05.028Z,27.15
2022-07-26T02:32:32.970Z,27.10
2022-07-26T02:35:00.894Z,27.06
2022-07-26T02:37:28.817Z,27.04
2022-07-26T02:39:56.682Z,27.01
2022-07-26T02:42:24.531Z,26.99
2022-07-26T02:44:54.017Z,26.97
2022-07-26T02:47:23.263Z,26.97
2022-07-26T02:49:51.197Z,26.95
2022-07-26T02:52:19.186Z,26.94
2022-07-26T02:54:47.050Z,26.92
2022-07-26T02:57:14.887Z,26.93
2022-07-26T02:59:42.819Z,26.93
2022-07-26T03:02:10.635Z,26.92
2022-07-26T03:04:39.886Z,26.94
2022-07-26T03:07:07.856Z,26.91
2022-07-26T03:09:35.666Z,26.90
2022-07-26T03:12:03.906Z,26.89
2022-07-26T03:14:31.756Z,26.88
2022-07-26T03:16:59.556Z,26.87
2022-07-26T03:19:27.497Z,26.88
2022-07-26T03:21:56.716Z,26.88
2022-07-26T03:24:24.584Z,26.86
2022-07-26T03:26:52.626Z,26.85
2022-07-26T03:29:20.611Z,26.84
2022-07-26T03:31:48.454Z,26.83
2022-07-26T03:34:16.355Z,26.83
2022-07-26T03:36:44.342Z,26.81
2022-07-26T03:39:13.649Z,26.82
2022-07-26T03:41:41.730Z,26.78
2022-07-26T03:44:10.024Z,26.77
2022-07-26T03:46:38.184Z,26.77
2022-07-26T03:49:06.095Z,26.75
2022-07-26T03:51:34.271Z,26.73
2022-07-26T03:54:02.157Z,26.72
2022-07-26T03:56:31.944Z,26.72
2022-07-26T03:59:01.634Z,26.71
2022-07-26T04:01:30.246Z,26.69
2022-07-26T04:03:58.280Z,26.66
2022-07-26T04:06:26.129Z,26.64
2022-07-26T04:08:54.059Z,26.62
2022-07-26T04:11:22.121Z,26.59
2022-07-26T04:13:55.594Z,26.30
2022-07-26T04:16:23.592Z,26.51
2022-07-26T04:18:51.802Z,26.52
2022-07-26T04:21:19.752Z,26.53
2022-07-26T04:23:51.125Z,26.51
2022-07-26T04:26:19.909Z,26.48
2022-07-26T04:28:47.946Z,26.49
2022-07-26T04:31:17.541Z,26.50
2022-07-26T04:33:45.489Z,26.48
2022-07-26T04:36:13.458Z,26.46
2022-07-26T04:38:41.325Z,26.44
2022-07-26T04:41:09.209Z,26.43
2022-07-26T04:43:37.341Z,26.44
2022-07-26T04:46:05.326Z,26.42
2022-07-26T04:48:34.691Z,26.45
2022-07-26T04:51:02.865Z,26.43
2022-07-26T04:53:30.753Z,26.41
2022-07-26T04:55:58.649Z,26.40
2022-07-26T04:58:26.522Z,26.39
2022-07-26T05:01:09.500Z,26.38
2022-07-26T05:03:39.868Z,26.39
2022-07-26T05:06:08.354Z,26.34
2022-07-26T05:08:36.258Z,26.33
2022-07-26T05:11:04.697Z,26.31
2022-07-26T05:13:32.924Z,26.30
2022-07-26T05:16:01.697Z,26.30
2022-07-26T05:18:31.881Z,26.31
2022-07-26T05:21:15.562Z,26.32
2022-07-26T05:23:44.015Z,26.30
2022-07-26T05:26:12.275Z,26.31
2022-07-26T05:28:40.556Z,26.30
2022-07-26T05:31:08.962Z,26.31
2022-07-26T05:33:36.892Z,26.32
2022-07-26T05:36:05.403Z,26.33
2022-07-26T05:38:34.908Z,26.36
2022-07-26T05:41:03.053Z,26.35
2022-07-26T05:43:40.942Z,26.36
2022-07-26T05:46:10.790Z,26.37
2022-07-26T05:48:38.989Z,26.38
2022-07-26T05:51:07.156Z,26.39
2022-07-26T05:53:36.448Z,26.40
2022-07-26T05:56:04.742Z,26.39
2022-07-26T05:58:32.628Z,26.40
2022-07-26T06:01:01.011Z,26.39
2022-07-26T06:03:30.073Z,26.39
2022-07-26T06:05:59.582Z,26.41
2022-07-26T06:08:28.226Z,26.41
2022-07-26T06:10:57.844Z,26.42
2022-07-26T06:13:25.881Z,26.41
2022-07-26T06:15:53.863Z,26.42
2022-07-26T06:18:22.110Z,26.41
2022-07-26T06:20:51.448Z,26.42
2022-07-26T06:23:33.554Z,26.43
2022-07-26T06:26:04.971Z,26.45
2022-07-26T06:28:33.095Z,26.43
2022-07-26T06:31:00.987Z,26.43
2022-07-26T06:33:28.866Z,26.45
2022-07-26T06:35:56.866Z,26.46
2022-07-26T06:38:24.945Z,26.47
2022-07-26T06:40:52.805Z,26.47
2022-07-26T06:43:22.271Z,26.50
2022-07-26T06:45:50.632Z,26.47
2022-07-26T06:48:18.657Z,26.48
2022-07-26T06:50:46.640Z,26.48
2022-07-26T06:53:14.472Z,26.49
2022-07-26T06:55:42.829Z,26.48
2022-07-26T06:58:10.924Z,26.48
2022-07-26T07:00:40.260Z,26.50
2022-07-26T07:03:08.265Z,26.49
2022-07-26T07:05:36.222Z,26.48
2022-07-26T07:08:04.911Z,26.49
2022-07-26T07:10:35.220Z,26.50
2022-07-26T07:13:03.999Z,26.52
2022-07-26T07:15:31.932Z,26.53
2022-07-26T07:18:01.297Z,26.57
2022-07-26T07:20:29.485Z,26.56
2022-07-26T07:22:57.542Z,26.59
2022-07-26T07:25:30.882Z,26.60
2022-07-26T07:27:59.557Z,26.63
2022-07-26T07:30:28.282Z,26.67
2022-07-26T07:32:56.989Z,26.70
2022-07-26T07:35:31.684Z,26.75
2022-07-26T07:38:00.563Z,26.76
2022-07-26T07:40:28.435Z,26.80
2022-07-26T07:42:58.341Z,26.83
2022-07-26T07:45:26.326Z,26.85
2022-07-26T07:47:54.236Z,26.88
2022-07-26T07:50:22.189Z,26.90
2022-07-26T07:52:58.025Z,26.95
2022-07-26T07:55:46.246Z,26.93
2022-07-26T07:58:15.694Z,26.95
2022-07-26T08:00:45.635Z,26.98
2022-07-26T08:03:17.934Z,27.01
2022-07-26T08:05:49.310Z,27.02
2022-07-26T08:08:22.594Z,27.07
2022-07-26T08:10:52.924Z,27.08
2022-07-26T08:13:22.070Z,27.09
2022-07-26T08:15:50.965Z,27.13
2022-07-26T08:18:21.643Z,27.16
2022-07-26T08:20:51.272Z,27.19
2022-07-26T08:23:21.977Z,27.30
2022-07-26T08:26:00.682Z,27.34
2022-07-26T08:28:46.723Z,27.40
2022-07-26T08:31:15.229Z,27.45
2022-07-26T08:33:46.294Z,27.51
2022-07-26T08:36:16.052Z,27.53
2022-07-26T08:38:47.741Z,27.61
2022-07-26T08:41:16.579Z,27.61
2022-07-26T08:43:51.169Z,27.66
2022-07-26T08:46:25.347Z,27.71
2022-07-26T08:48:54.908Z,27.75
2022-07-26T08:51:25.039Z,27.82
2022-07-26T08:54:04.115Z,27.88
2022-07-26T08:56:33.287Z,27.92
2022-07-26T08:59:05.192Z,28.01
2022-07-26T09:01:33.438Z,28.03
2022-07-26T09:04:30.844Z,28.14
2022-07-26T09:07:03.301Z,28.21
2022-07-26T09:09:33.808Z,28.28
2022-07-26T09:12:15.729Z,28.39
2022-07-26T09:14:46.610Z,28.44
2022-07-26T09:17:16.437Z,28.58
2022-07-26T09:19:44.516Z,28.69
2022-07-26T09:22:14.676Z,28.85
2022-07-26T09:24:45.692Z,28.98
2022-07-26T09:27:16.926Z,29.09
2022-07-26T09:29:49.645Z,29.19
2022-07-26T09:32:19.928Z,29.30
2022-07-26T09:34:52.978Z,29.38
2022-07-26T09:37:34.929Z,29.46
2022-07-26T09:40:07.256Z,29.53
2022-07-26T09:42:35.405Z,29.28
2022-07-26T09:45:04.693Z,29.59
2022-07-26T09:47:40.364Z,29.69
2022-07-26T09:50:13.301Z,29.72
2022-07-26T09:52:42.240Z,29.70
2022-07-26T09:55:13.316Z,29.75
2022-07-26T09:57:41.452Z,29.71
2022-07-26T10:00:10.745Z,29.73
2022-07-26T10:02:38.896Z,29.70
2022-07-26T10:05:07.809Z,29.69
2022-07-26T10:07:36.224Z,29.67
2022-07-26T10:10:11.364Z,29.67
2022-07-26T10:12:44.174Z,29.62
2022-07-26T10:15:40.717Z,29.57
2022-07-26T10:18:10.161Z,29.48
2022-07-26T10:20:51.249Z,29.44
2022-07-26T10:23:36.694Z,29.36
2022-07-26T10:26:06.203Z,29.29
2022-07-26T10:28:37.803Z,29.25
2022-07-26T10:31:30.482Z,29.15
2022-07-26T10:34:01.390Z,29.12
2022-07-26T10:36:33.483Z,29.12
2022-07-26T10:39:05.272Z,29.09
2022-07-26T10:41:36.247Z,29.08
2022-07-26T10:44:25.402Z,29.11
2022-07-26T10:47:18.381Z,29.13
2022-07-26T10:49:57.640Z,29.24
2022-07-26T10:52:27.823Z,29.30
2022-07-26T10:55:13.457Z,29.38
2022-07-26T10:57:43.620Z,29.46
2022-07-26T11:00:20.121Z,29.59
2022-07-26T11:02:55.697Z,29.69
2022-07-26T11:05:28.849Z,29.74
2022-07-26T11:08:01.352Z,29.85
2022-07-26T11:10:32.748Z,29.94
2022-07-26T11:13:19.453Z,29.98
2022-07-26T11:15:51.332Z,30.02
2022-07-26T11:18:25.113Z,30.03
2022-07-26T11:20:55.375Z,30.02
2022-07-26T11:23:32.398Z,30.01
2022-07-26T11:26:12.225Z,29.97
2022-07-26T11:28:55.609Z,29.95
2022-07-26T11:31:50.769Z,29.92
2022-07-26T11:34:22.089Z,29.88
2022-07-26T11:36:52.123Z,29.83
2022-07-26T11:39:23.933Z,29.81
2022-07-26T11:41:57.405Z,29.75
2022-07-26T11:44:26.348Z,29.73
2022-07-26T11:46:57.830Z,29.71
2022-07-26T11:50:00.500Z,29.66
2022-07-26T11:52:25.053Z,29.64
2022-07-26T11:54:54.141Z,29.67
2022-07-26T11:57:22.272Z,29.69
2022-07-26T11:59:51.539Z,29.73
2022-07-26T12:02:23.265Z,29.79
2022-07-26T12:05:11.439Z,29.78
2022-07-26T12:07:39.744Z,29.85
2022-07-26T12:10:08.661Z,29.92
2022-07-26T12:12:36.902Z,29.94
2022-07-26T12:15:06.914Z,30.00
2022-07-26T12:17:36.624Z,30.06
2022-07-26T12:20:15.719Z,30.14
2022-07-26T12:22:54.491Z,30.20
2022-07-26T12:25:26.988Z,30.29
2022-07-26T12:27:55.538Z,30.34
2022-07-26T12:30:24.163Z,30.40
2022-07-26T12:32:55.248Z,30.49
2022-07-26T12:35:32.314Z,30.53
2022-07-26T12:38:01.026Z,30.53
2022-07-26T12:40:31.171Z,30.57
2022-07-26T12:43:02.801Z,30.59
2022-07-26T12:45:33.001Z,30.57
2022-07-26T12:48:03.755Z,30.60
2022-07-26T12:50:32.895Z,30.57
2022-07-26T12:53:03.184Z,30.57
2022-07-26T12:55:31.851Z,30.54
2022-07-26T12:58:00.755Z,30.53
2022-07-26T13:00:29.905Z,30.49
2022-07-26T13:02:58.370Z,30.47
2022-07-26T13:05:27.744Z,30.48
2022-07-26T13:07:55.958Z,30.44
2022-07-26T13:10:39.636Z,30.44
2022-07-26T13:13:07.792Z,30.42
2022-07-26T13:15:37.160Z,30.42
2022-07-26T13:18:08.102Z,30.43
2022-07-26T13:20:39.294Z,30.42
2022-07-26T13:23:11.542Z,30.39
2022-07-26T13:25:41.204Z,30.38
2022-07-26T13:28:09.898Z,30.38
2022-07-26T13:30:39.412Z,30.38
2022-07-26T13:33:08.258Z,30.36
2022-07-26T13:35:39.339Z,30.32
2022-07-26T13:38:09.576Z,30.28
2022-07-26T13:40:37.601Z,30.25
2022-07-26T13:43:06.045Z,30.22
2022-07-26T13:45:34.193Z,30.16
2022-07-26T13:48:02.305Z,30.12
2022-07-26T13:50:30.317Z,30.09
2022-07-26T13:52:59.858Z,30.07
2022-07-26T13:55:27.821Z,30.00
2022-07-26T13:57:57.864Z,29.96
2022-07-26T14:00:27.468Z,29.92
2022-07-26T14:02:56.407Z,29.85
2022-07-26T14:05:25.137Z,29.80
2022-07-26T14:07:53.866Z,29.75
2022-07-26T14:10:24.033Z,29.71
2022-07-26T14:12:53.463Z,29.63
2022-07-26T14:15:23.389Z,29.57
2022-07-26T14:17:52.446Z,29.50
2022-07-26T14:20:21.010Z,29.45
2022-07-26T14:22:53.209Z,29.40
2022-07-26T14:25:21.354Z,29.06
2022-07-26T14:27:51.124Z,29.27
2022-07-26T14:30:19.716Z,29.24
2022-07-26T14:32:48.168Z,29.19
2022-07-26T14:35:17.556Z,29.15
2022-07-26T14:37:46.263Z,29.12
2022-07-26T14:40:16.641Z,29.13
2022-07-26T14:42:45.250Z,29.11
2022-07-26T14:45:15.538Z,29.13
2022-07-26T14:47:44.238Z,29.12
2022-07-26T14:50:13.537Z,29.13
2022-07-26T14:52:42.990Z,29.14
2022-07-26T14:55:11.787Z,29.17
2022-07-26T14:57:40.670Z,29.17
2022-07-26T15:00:11.348Z,29.20
2022-07-26T15:02:42.319Z,29.23
2022-07-26T15:05:11.219Z,29.23
2022-07-26T15:07:39.741Z,29.22
2022-07-26T15:10:09.696Z,29.24
2022-07-26T15:12:37.793Z,29.21
2022-07-26T15:15:07.431Z,29.24
2022-07-26T15:17:36.182Z,29.22
2022-07-26T15:20:06.920Z,29.24
2022-07-26T15:22:35.560Z,29.21
2022-07-26T15:25:03.520Z,29.21
2022-07-26T15:27:31.463Z,29.20
2022-07-26T15:30:04.147Z,29.20
2022-07-26T15:32:35.310Z,29.19
2022-07-26T15:35:03.376Z,29.18
2022-07-26T15:37:32.927Z,29.20
2022-07-26T15:40:01.464Z,29.18
2022-07-26T15:42:32.047Z,29.21
2022-07-26T15:47:54.813Z,29.19
2022-07-26T15:50:26.310Z,29.19
2022-07-26T15:52:55.834Z,29.21
2022-07-26T15:55:23.862Z,29.18
2022-07-26T15:57:51.924Z,29.18
2022-07-26T16:00:20.352Z,29.17
2022-07-26T16:02:48.360Z,29.16
2022-07-26T16:05:17.258Z,29.15
2022-07-26T16:07:46.235Z,29.13
2022-07-26T16:10:16.327Z,29.14
2022-07-26T16:12:44.429Z,29.09
2022-07-26T16:15:13.163Z,29.10
2022-07-26T16:17:41.291Z,29.09
2022-07-26T16:20:10.035Z,29.09
2022-07-26T16:22:41.030Z,29.09
2022-07-26T16:25:12.780Z,29.05
2022-07-26T16:27:43.838Z,29.07
2022-07-26T16:30:13.343Z,29.06
2022-07-26T16:32:41.559Z,29.03
2022-07-26T16:35:10.580Z,29.02
2022-07-26T16:37:38.620Z,28.99
2022-07-26T16:40:08.601Z,28.99
2022-07-26T16:42:36.705Z,28.95
2022-07-26T16:45:06.786Z,28.95
2022-07-26T16:47:34.851Z,28.90
2022-07-26T16:50:03.002Z,28.88
2022-07-26T16:52:30.933Z,28.85
2022-07-26T16:54:59.082Z,28.82
2022-07-26T16:57:27.933Z,28.81
2022-07-26T16:59:55.815Z,28.76
2022-07-26T17:02:25.304Z,28.75
2022-07-26T17:04:55.850Z,28.67
2022-07-26T17:07:25.780Z,28.59
2022-07-26T17:09:55.172Z,28.54
2022-07-26T17:12:23.357Z,28.47
2022-07-26T17:14:51.681Z,28.42
2022-07-26T17:17:19.811Z,28.37
2022-07-26T17:19:49.313Z,28.34
2022-07-26T17:22:18.014Z,28.29
2022-07-26T17:24:46.113Z,28.26
2022-07-26T17:27:14.136Z,28.22
2022-07-26T17:29:42.124Z,28.19
2022-07-26T17:32:10.739Z,28.16
2022-07-26T17:34:39.567Z,28.13
2022-07-26T17:37:10.185Z,28.13
2022-07-26T17:39:50.749Z,28.09
2022-07-26T17:42:21.657Z,28.04
2022-07-26T17:44:49.824Z,28.03
2022-07-26T17:47:28.903Z,28.01
2022-07-26T17:50:14.394Z,27.99
2022-07-26T17:52:50.347Z,27.98
2022-07-26T17:55:19.659Z,27.96
2022-07-26T17:57:49.708Z,27.94
2022-07-26T18:00:19.806Z,27.93
2022-07-26T18:02:47.805Z,27.90
2022-07-26T18:05:18.257Z,27.89
2022-07-26T18:07:46.606Z,27.86
2022-07-26T18:10:16.031Z,27.86
2022-07-26T18:12:44.037Z,27.82
2022-07-26T18:15:12.721Z,27.81
2022-07-26T18:17:40.875Z,27.80
2022-07-26T18:20:10.019Z,27.80
2022-07-26T18:22:38.482Z,27.77
2022-07-26T18:25:07.663Z,27.77
2022-07-26T18:27:37.151Z,27.76
2022-07-26T18:30:06.435Z,27.73
2022-07-26T18:32:35.217Z,27.70
2022-07-26T18:35:03.370Z,27.69
2022-07-26T18:37:31.728Z,27.67
2022-07-26T18:40:00.973Z,27.64
2022-07-26T18:42:29.038Z,27.61
2022-07-26T18:44:58.383Z,27.60
2022-07-26T18:47:26.505Z,27.56
2022-07-26T18:49:54.583Z,27.54
2022-07-26T18:52:32.218Z,27.51
2022-07-26T18:55:02.574Z,27.49
2022-07-26T18:57:30.589Z,27.46
2022-07-26T18:59:59.948Z,27.45
2022-07-26T19:02:27.935Z,27.40
2022-07-26T19:04:56.328Z,27.38
2022-07-26T19:07:24.471Z,27.37
2022-07-26T19:09:57.842Z,27.34
2022-07-26T19:12:26.946Z,27.30
2022-07-26T19:14:54.939Z,27.27
2022-07-26T19:17:24.380Z,27.26
2022-07-26T19:19:52.616Z,27.19
2022-07-26T19:22:23.068Z,27.15
2022-07-26T19:24:51.317Z,27.09
2022-07-26T19:27:19.929Z,27.04
2022-07-26T19:29:48.702Z,27.01
2022-07-26T19:32:16.846Z,26.96
2022-07-26T19:34:46.250Z,26.94
2022-07-26T19:37:19.751Z,26.87
2022-07-26T19:39:48.560Z,26.83
2022-07-26T19:42:18.362Z,26.78
2022-07-26T19:44:47.215Z,26.74
2022-07-26T19:47:15.323Z,26.71
2022-07-26T19:49:43.546Z,26.69
2022-07-26T19:52:12.912Z,26.68
2022-07-26T19:54:41.226Z,26.64
2022-07-26T19:57:09.320Z,26.62
2022-07-26T19:59:37.360Z,26.62
2022-07-26T20:02:05.808Z,26.60
2022-07-26T20:04:33.949Z,26.58
2022-07-26T20:07:01.895Z,26.59
2022-07-26T20:09:31.592Z,26.60
2022-07-26T20:12:00.736Z,26.58
2022-07-26T20:14:28.776Z,26.56
2022-07-26T20:16:58.252Z,26.55
2022-07-26T20:19:28.082Z,26.54
2022-07-26T20:21:56.304Z,26.52
2022-07-26T20:24:24.372Z,26.51
2022-07-26T20:26:54.159Z,26.52
2022-07-26T20:29:22.412Z,26.51
2022-07-26T20:31:50.723Z,26.50
2022-07-26T20:34:18.941Z,26.49
2022-07-26T20:36:47.389Z,26.48
2022-07-26T20:39:15.881Z,26.47
2022-07-26T20:41:43.958Z,26.45
2022-07-26T20:44:14.783Z,26.45
2022-07-26T20:46:42.760Z,26.40
2022-07-26T20:49:11.344Z,26.39
2022-07-26T20:51:39.823Z,26.37
2022-07-26T20:54:08.675Z,26.36
2022-07-26T20:56:37.193Z,26.34
2022-07-26T20:59:05.733Z,26.31
2022-07-26T21:01:35.432Z,26.32
2022-07-26T21:04:03.599Z,26.29
2022-07-26T21:06:33.190Z,26.26
2022-07-26T21:09:08.861Z,26.25
2022-07-26T21:11:38.549Z,26.22
2022-07-26T21:14:06.808Z,26.21
2022-07-26T21:16:36.557Z,26.22
2022-07-26T21:19:05.923Z,26.18
2022-07-26T21:21:37.016Z,26.15
2022-07-26T21:24:06.727Z,26.15
2022-07-26T21:26:35.222Z,26.12
2022-07-26T21:29:03.382Z,26.10
2022-07-26T21:31:31.658Z,26.05
2022-07-26T21:34:01.239Z,26.04
2022-07-26T21:36:29.436Z,25.97
2022-07-26T21:38:59.173Z,25.94
2022-07-26T21:41:27.127Z,25.89
2022-07-26T21:43:55.187Z,25.86
2022-07-26T21:46:23.217Z,25.81
2022-07-26T21:48:51.387Z,25.77
2022-07-26T21:51:20.883Z,25.76
2022-07-26T21:53:48.987Z,25.71
2022-07-26T21:56:17.251Z,25.68
2022-07-26T21:58:45.353Z,25.66
2022-07-26T22:01:15.526Z,25.64
2022-07-26T22:03:44.225Z,25.63
2022-07-26T22:06:13.050Z,25.60
2022-07-26T22:08:42.506Z,25.62
2022-07-26T22:11:10.672Z,25.57
2022-07-26T22:13:38.873Z,25.57
2022-07-26T22:16:08.239Z,25.55
2022-07-26T22:18:36.257Z,25.52
2022-07-26T22:21:04.862Z,25.49
2022-07-26T22:23:33.466Z,25.47
2022-07-26T22:26:04.705Z,25.48
2022-07-26T22:28:34.405Z,25.45
2022-07-26T22:31:02.575Z,25.43
2022-07-26T22:33:30.646Z,25.41
2022-07-26T22:35:58.620Z,25.38
2022-07-26T22:38:26.617Z,25.37
2022-07-26T22:40:54.648Z,25.34
2022-07-26T22:43:24.240Z,25.33
2022-07-26T22:45:52.244Z,25.27
2022-07-26T22:48:20.311Z,25.24
2022-07-26T22:50:48.383Z,25.21
2022-07-26T22:53:16.430Z,25.18
2022-07-26T22:55:44.396Z,25.14
2022-07-26T22:58:12.464Z,25.09
2022-07-26T23:00:42.275Z,25.07
2022-07-26T23:03:20.048Z,25.00
2022-07-26T23:05:50.372Z,24.97
2022-07-26T23:11:08.299Z,24.90
2022-07-26T23:13:36.287Z,24.87
2022-07-26T23:16:06.502Z,24.86
2022-07-26T23:18:35.217Z,24.81
2022-07-26T23:21:04.204Z,24.79
2022-07-26T23:23:32.646Z,24.77
2022-07-26T23:26:01.084Z,24.74
2022-07-26T23:28:37.094Z,24.73
2022-07-26T23:31:11.901Z,24.72
2022-07-26T23:33:53.534Z,24.69
2022-07-26T23:36:26.247Z,24.68
2022-07-26T23:38:55.147Z,24.63
2022-07-26T23:41:23.480Z,24.64
2022-07-26T23:43:51.983Z,24.62
2022-07-26T23:46:21.713Z,24.64
2022-07-26T23:48:50.477Z,24.61
2022-07-26T23:51:19.500Z,24.60
2022-07-26T23:53:48.343Z,24.58
2022-07-26T23:56:16.896Z,24.59
2022-07-26T23:58:45.572Z,24.58
